Time;durP1;ratioP1;P1;durP2;ratioP2;P2;SDS_P1;SDS_P2;PMS_P1;PMS_P2;Temp;Humidity;BMP_temperature;BMP_pressure;BME280_temperature;BME280_humidity;BME280_pressure;Samples;Min_cycle;Max_cycle;Signal;HPM_P1;HPM_P2
2022/12/29 00:00:35;;;;;;;1.00;0.73;;;6.80;60.60;;;2.19;76.12;95413.59;4969454;28;20401;-51
2022/12/29 00:03:01;;;;;;;0.95;0.63;;;6.90;60.50;;;2.29;75.13;95405.25;4958484;28;20039;-51
2022/12/29 00:05:27;;;;;;;0.98;0.70;;;7.10;60.40;;;2.38;76.63;95411.00;4957586;28;20030;-53
2022/12/29 00:07:53;;;;;;;1.42;0.68;;;7.10;60.20;;;2.42;76.20;95406.94;4957270;28;20034;-50
2022/12/29 00:10:37;;;;;;;1.20;0.80;;;7.20;60.10;;;2.43;75.85;95401.44;4955751;28;20031;-51
2022/12/29 00:15:47;;;;;;;0.95;0.93;;;7.40;59.80;;;2.54;74.14;95399.94;4961330;28;20087;-54
2022/12/29 00:18:13;;;;;;;1.27;0.80;;;7.40;59.60;;;2.65;73.29;95404.47;4972951;28;20113;-51
2022/12/29 00:45:50;;;;;;;1.00;0.80;;;8.30;58.40;;;3.42;67.83;95406.59;4968177;28;20187;-52
2022/12/29 00:51:09;;;;;;;0.90;0.85;;;8.40;58.00;;;3.57;68.11;95404.31;4970707;28;20041;-50
2022/12/29 00:53:35;;;;;;;1.95;0.75;;;8.50;58.00;;;3.60;69.25;95403.88;4966663;28;20034;-55
2022/12/29 00:56:01;;;;;;;1.08;0.70;;;8.50;57.80;;;3.64;71.10;95394.50;4949811;28;20034;-48
2022/12/29 00:58:31;;;;;;;3.22;0.70;;;8.60;57.70;;;3.66;69.95;95402.16;4959754;28;20030;-50
2022/12/29 01:01:08;;;;;;;0.95;0.80;;;8.60;57.60;;;3.65;70.68;95403.22;4970454;28;20057;-52
2022/12/29 01:03:38;;;;;;;1.50;0.80;;;8.60;58.00;;;3.65;69.63;95400.56;4957737;28;20022;-49
2022/12/29 01:06:09;;;;;;;1.73;0.80;;;8.60;58.10;;;3.64;70.43;95402.41;4987042;28;20050;-49
2022/12/29 01:08:36;;;;;;;0.90;0.60;;;8.70;57.40;;;3.72;67.30;95411.81;4968594;28;20041;-51
2022/12/29 01:11:10;;;;;;;1.30;0.70;;;8.70;57.20;;;3.87;67.23;95412.19;4943390;28;20033;-54
2022/12/29 01:13:38;;;;;;;1.77;0.75;;;8.80;57.10;;;4.01;66.73;95418.06;4953684;28;20042;-51
2022/12/29 01:16:10;;;;;;;2.33;0.80;;;8.80;57.10;;;4.10;66.42;95424.59;4955440;28;20030;-49
2022/12/29 01:18:38;;;;;;;1.17;1.00;;;8.90;57.00;;;4.15;66.80;95418.66;4972087;28;20034;-50
2022/12/29 01:21:07;;;;;;;1.50;0.70;;;8.90;56.80;;;4.17;66.68;95420.03;4971136;28;20496;-48
2022/12/29 01:23:41;;;;;;;1.75;0.98;;;9.00;56.80;;;4.19;64.88;95419.78;4957673;28;20030;-52
2022/12/29 01:26:17;;;;;;;2.15;0.93;;;9.00;56.50;;;4.23;65.46;95418.34;4957899;28;20023;-54
2022/12/29 01:28:44;;;;;;;1.25;0.95;;;9.10;56.40;;;4.23;65.92;95426.25;4970799;28;20023;-49
2022/12/29 01:31:15;;;;;;;1.33;0.80;;;9.10;56.40;;;4.23;65.38;95426.25;4931636;28;20027;-51
2022/12/29 01:33:43;;;;;;;2.42;0.90;;;9.10;56.20;;;4.23;68.81;95430.69;4968180;28;20027;-55
2022/12/29 01:36:15;;;;;;;1.77;0.68;;;9.20;56.30;;;4.18;71.24;95420.84;4965645;28;20543;-54
2022/12/29 01:38:42;;;;;;;1.58;0.82;;;9.10;56.20;;;4.12;71.83;95419.13;4970665;28;20069;-55
2022/12/29 01:41:12;;;;;;;1.15;0.90;;;9.10;56.30;;;4.08;67.11;95425.88;4941581;28;20389;-52
2022/12/29 01:44:00;;;;;;;1.90;1.20;;;9.10;56.10;;;4.11;67.09;95425.44;4971360;28;20026;-49
2022/12/29 01:46:50;;;;;;;1.30;0.90;;;9.10;56.00;;;4.16;66.04;95428.97;4966705;28;20030;-52
2022/12/29 01:49:26;;;;;;;1.40;0.80;;;9.20;56.00;;;4.20;66.88;95425.88;4971071;28;20428;-50
2022/12/29 01:52:06;;;;;;;1.67;0.90;;;9.10;56.10;;;4.25;67.37;95423.38;4966317;28;20069;-53
2022/12/29 01:54:53;;;;;;;0.77;0.68;;;9.20;56.00;;;4.30;65.86;95432.19;4985315;28;20066;-50
2022/12/29 01:57:31;;;;;;;0.73;0.68;;;9.20;55.90;;;4.35;64.54;95424.38;4960795;28;20377;-56
2022/12/29 02:00:18;;;;;;;1.05;0.82;;;9.20;55.70;;;4.45;65.94;95420.38;4940754;28;20041;-48
2022/12/29 02:02:55;;;;;;;0.90;0.73;;;9.30;55.60;;;4.50;65.78;95423.94;4961958;28;20034;-50
2022/12/29 02:06:32;;;;;;;0.95;0.63;;;9.30;55.60;;;4.63;66.78;95412.34;4965547;28;21084;-52
2022/12/29 02:08:59;;;;;;;1.42;0.90;;;9.40;55.60;;;4.70;67.84;95409.56;4920227;28;20046;-53
2022/12/29 02:11:35;;;;;;;0.90;0.70;;;9.40;55.80;;;4.72;67.71;95410.16;4961292;28;20489;-52
2022/12/29 02:14:00;;;;;;;2.05;0.88;;;9.50;55.80;;;4.74;68.05;95402.81;4959382;28;20603;-47
2022/12/29 02:17:05;;;;;;;1.85;1.02;;;9.50;55.80;;;4.78;68.04;95412.66;4954834;28;20027;-48
2022/12/29 02:20:04;;;;;;;2.15;1.02;;;9.60;55.80;;;4.86;68.15;95406.25;4969400;28;20058;-47
2022/12/29 02:23:28;;;;;;;1.20;0.95;;;9.60;55.70;;;5.01;66.90;95406.53;4958713;28;20723;-54
2022/12/29 02:26:16;;;;;;;1.45;0.90;;;9.70;55.80;;;5.17;66.80;95410.31;4952011;28;20027;-52
2022/12/29 02:29:38;;;;;;;1.10;1.00;;;9.80;55.80;;;5.28;67.02;95409.44;4966681;28;20030;-55
2022/12/29 02:32:38;;;;;;;1.88;1.17;;;9.90;55.80;;;5.39;67.99;95405.19;4948109;28;20053;-47
2022/12/29 02:35:30;;;;;;;2.17;1.00;;;9.90;55.80;;;5.51;68.43;95399.81;4954961;28;20035;-48
2022/12/29 02:38:57;;;;;;;2.15;1.15;;;10.00;55.90;;;5.57;69.95;95394.38;4963742;28;20053;-50
2022/12/29 02:41:40;;;;;;;4.05;1.40;;;10.10;55.90;;;5.64;70.32;95394.28;4949906;28;20069;-49
2022/12/29 02:45:02;;;;;;;2.33;1.30;;;10.20;56.00;;;5.71;70.43;95405.47;4962966;28;20117;-52
2022/12/29 02:48:28;;;;;;;1.52;1.10;;;10.30;56.00;;;5.79;70.88;95402.44;4952222;28;20535;-50
2022/12/29 02:51:14;;;;;;;3.00;1.10;;;10.30;56.00;;;5.82;70.71;95403.81;4950087;28;20030;-51
2022/12/29 02:56:25;;;;;;;1.35;1.15;;;10.40;56.10;;;5.90;70.19;95397.34;4941134;28;20515;-51
2022/12/29 02:58:54;;;;;;;1.80;1.13;;;10.50;56.10;;;5.92;70.22;95389.94;4951414;28;20042;-51
2022/12/29 03:01:34;;;;;;;3.10;1.40;;;10.50;56.00;;;5.93;69.98;95402.19;4969755;28;20026;-51
2022/12/29 03:05:13;;;;;;;1.67;1.48;;;10.50;55.90;;;5.94;70.25;95395.84;4955674;28;20021;-53
2022/12/29 03:08:27;;;;;;;1.80;1.10;;;10.60;55.90;;;5.94;70.21;95394.00;4946712;28;20133;-48
2022/12/29 03:12:07;;;;;;;1.70;1.15;;;10.60;55.90;;;5.97;71.01;95395.38;4961821;28;20041;-48
2022/12/29 03:17:57;;;;;;;2.72;1.80;;;10.60;56.10;;;6.07;70.77;95384.94;4960889;28;19912;-48
2022/12/29 03:21:01;;;;;;;3.03;1.48;;;10.70;56.10;;;6.12;70.86;95389.53;4960439;28;20133;-50
2022/12/29 03:23:32;;;;;;;3.35;1.23;;;10.70;56.20;;;6.12;71.45;95371.81;4951038;28;20039;-48
2022/12/29 03:26:10;;;;;;;3.80;1.30;;;10.80;56.20;;;6.14;71.32;95371.56;4946785;28;20015;-48
2022/12/29 03:28:52;;;;;;;2.00;1.20;;;10.80;56.10;;;6.14;70.42;95371.56;4946905;28;20041;-50
2022/12/29 03:31:24;;;;;;;2.28;1.20;;;10.80;56.10;;;6.15;71.55;95371.31;4964768;28;20027;-52
2022/12/29 03:34:00;;;;;;;3.53;1.27;;;10.80;56.10;;;6.14;71.89;95367.09;4948415;28;20027;-48
2022/12/29 03:37:25;;;;;;;2.13;1.20;;;10.80;56.10;;;6.08;72.34;95364.59;4966898;28;20029;-47
2022/12/29 03:39:56;;;;;;;1.90;1.42;;;10.80;56.10;;;6.06;72.30;95366.69;4963898;28;20077;-48
2022/12/29 03:42:30;;;;;;;2.65;1.30;;;10.80;56.20;;;6.03;72.31;95360.81;4949244;28;20026;-56
2022/12/29 03:45:06;;;;;;;1.85;1.30;;;10.80;56.20;;;6.06;72.27;95375.41;4960803;28;20109;-51
2022/12/29 03:47:35;;;;;;;1.95;1.33;;;10.80;56.20;;;6.04;72.94;95372.19;4966535;28;20034;-51
2022/12/29 03:50:01;;;;;;;4.32;1.30;;;10.80;56.30;;;6.08;72.69;95375.16;4952582;28;20141;-48
2022/12/29 03:52:32;;;;;;;3.40;1.35;;;10.80;56.30;;;6.08;73.75;95364.59;4956405;28;20113;-51
2022/12/29 03:54:58;;;;;;;1.83;1.10;;;10.80;56.40;;;6.01;74.66;95372.69;4963123;28;20022;-47
2022/12/29 03:57:24;;;;;;;2.80;1.40;;;10.80;56.50;;;5.98;74.63;95370.53;4969889;28;20080;-52
2022/12/29 03:59:50;;;;;;;2.60;1.40;;;10.80;56.50;;;5.91;74.86;95385.72;4950468;28;20070;-54
2022/12/29 04:02:21;;;;;;;1.38;1.10;;;10.70;56.50;;;5.90;75.12;95373.53;4953189;28;20030;-53
2022/12/29 04:04:50;;;;;;;3.10;1.38;;;10.70;56.60;;;5.80;75.94;95369.69;4958746;28;20515;-49
2022/12/29 04:07:16;;;;;;;1.85;1.30;;;10.70;56.70;;;5.75;76.07;95366.97;4960607;28;20117;-51
2022/12/29 04:09:42;;;;;;;2.47;1.35;;;10.70;56.70;;;5.68;75.06;95366.31;4950133;28;20031;-54
2022/12/29 04:12:07;;;;;;;2.75;1.20;;;10.60;56.60;;;5.64;75.54;95359.91;4952821;28;20109;-48
2022/12/29 04:14:36;;;;;;;2.17;1.45;;;10.60;57.30;;;5.60;74.44;95364.06;4953217;28;20509;-53
2022/12/29 04:17:08;;;;;;;1.40;1.13;;;10.50;56.60;;;5.64;74.17;95352.00;4950111;28;20034;-50
2022/12/29 04:19:33;;;;;;;2.42;1.20;;;10.50;56.70;;;5.66;73.00;95343.81;4963233;28;20113;-56
2022/12/29 04:22:05;;;;;;;4.68;1.55;;;10.50;56.70;;;5.71;73.37;95346.53;4951198;28;20109;-47
2022/12/29 04:24:31;;;;;;;2.23;1.30;;;10.50;56.70;;;5.75;72.78;95337.88;4951441;28;20022;-51
2022/12/29 04:27:06;;;;;;;4.47;1.25;;;10.50;56.70;;;5.80;73.13;95343.25;4970820;28;20019;-50
2022/12/29 04:29:32;;;;;;;2.28;1.30;;;10.50;57.30;;;5.83;73.22;95336.69;4954203;28;20050;-55
2022/12/29 04:31:58;;;;;;;3.53;1.50;;;10.50;56.70;;;5.87;73.46;95337.00;4950358;28;20030;-50
2022/12/29 04:34:27;;;;;;;1.83;1.25;;;10.60;56.80;;;5.94;74.28;95340.31;4964988;28;20026;-52
2022/12/29 04:36:56;;;;;;;2.45;1.42;;;10.60;56.90;;;5.98;73.48;95330.84;4963925;28;20041;-52
2022/12/29 04:39:22;;;;;;;1.50;1.13;;;10.60;56.90;;;6.03;72.99;95347.59;4954281;28;20033;-51
2022/12/29 04:41:47;;;;;;;2.42;1.25;;;10.70;56.90;;;6.10;72.85;95339.50;4960083;28;20038;-49
2022/12/29 04:44:16;;;;;;;2.55;1.33;;;10.70;56.90;;;6.09;71.84;95337.91;4958426;28;20030;-47
2022/12/29 04:46:45;;;;;;;1.95;1.17;;;10.70;56.80;;;6.08;71.75;95338.97;4969380;28;20482;-49
2022/12/29 04:49:11;;;;;;;1.40;1.17;;;10.70;56.70;;;5.99;66.18;95333.28;4971408;28;21131;-55
2022/12/29 04:51:37;;;;;;;1.10;1.00;;;10.70;56.30;;;5.95;66.02;95332.13;4968150;28;20029;-47
2022/12/29 04:54:06;;;;;;;2.28;1.00;;;10.70;56.10;;;5.96;64.10;95332.97;4953244;28;20477;-48
2022/12/29 04:56:32;;;;;;;2.05;1.13;;;10.70;55.60;;;5.89;63.36;95319.88;4970426;28;20030;-51
2022/12/29 04:59:01;;;;;;;1.90;1.05;;;10.60;55.30;;;5.89;62.81;95327.81;4962495;28;20392;-47
2022/12/29 05:01:26;;;;;;;1.00;0.85;;;10.60;55.00;;;5.91;62.82;95323.06;4968755;28;20684;-53
2022/12/29 05:03:55;;;;;;;1.00;0.90;;;10.60;54.90;;;5.92;63.61;95332.63;4950838;28;20019;-48
2022/12/29 05:06:27;;;;;;;1.48;1.00;;;10.60;54.90;;;5.92;62.59;95332.63;4951455;28;20030;-51
2022/12/29 05:09:07;;;;;;;2.30;1.05;;;10.60;54.60;;;5.94;64.10;95335.03;4952263;28;20524;-47
2022/12/29 05:11:36;;;;;;;2.97;1.08;;;10.60;55.20;;;5.90;64.95;95325.97;4961468;28;20444;-52
2022/12/29 05:14:11;;;;;;;1.83;1.10;;;10.60;54.70;;;5.90;63.25;95329.41;4970295;28;20056;-52
2022/12/29 05:16:36;;;;;;;3.00;1.10;;;10.60;54.60;;;5.95;63.91;95320.75;4957320;28;20027;-53
2022/12/29 05:19:02;;;;;;;1.83;1.13;;;10.60;54.60;;;5.94;63.00;95340.31;4953387;28;20022;-56
2022/12/29 05:21:28;;;;;;;1.40;0.90;;;10.60;54.50;;;6.02;62.45;95332.78;4954097;28;20045;-57
2022/12/29 05:23:54;;;;;;;3.00;1.13;;;10.70;54.40;;;6.09;61.79;95337.13;4960949;28;20497;-58
2022/12/29 05:26:20;;;;;;;2.17;0.85;;;10.70;54.30;;;6.10;61.62;95339.50;4943448;28;20027;-56
2022/12/29 05:28:46;;;;;;;2.90;0.80;;;10.70;54.10;;;6.11;61.21;95343.78;4961008;28;20026;-53
2022/12/29 05:31:12;;;;;;;2.75;1.10;;;10.70;53.90;;;6.08;62.44;95332.84;4970114;28;20041;-52
2022/12/29 05:33:41;;;;;;;1.88;0.80;;;10.80;53.80;;;6.03;60.22;95334.38;4959882;28;20022;-57
2022/12/29 05:36:10;;;;;;;1.65;1.27;;;10.80;53.70;;;6.04;61.66;95335.19;4968854;28;20498;-57
2022/12/29 05:38:36;;;;;;;2.95;0.90;;;10.80;53.50;;;6.03;61.19;95329.09;4963265;28;20030;-55
2022/12/29 05:41:12;;;;;;;3.28;1.00;;;10.70;53.40;;;6.04;61.97;95327.25;4962417;28;20030;-57
2022/12/29 05:43:38;;;;;;;1.52;1.00;;;10.70;53.40;;;6.02;62.74;95340.72;4954010;28;20030;-53
2022/12/29 05:46:04;;;;;;;2.10;0.98;;;10.70;53.40;;;5.98;62.28;95344.06;4967889;28;20088;-55
2022/12/29 05:48:30;;;;;;;1.00;0.90;;;10.70;53.40;;;5.99;62.60;95345.69;4969001;28;20033;-51
2022/12/29 05:51:08;;;;;;;1.70;0.98;;;10.70;53.50;;;6.01;63.00;95343.59;4956508;28;20026;-51
2022/12/29 05:53:37;;;;;;;1.70;0.95;;;10.70;53.30;;;6.02;64.34;95343.38;4958839;28;20022;-53
2022/12/29 05:56:06;;;;;;;1.50;1.10;;;10.70;53.50;;;6.02;63.90;95347.88;4964662;28;20029;-53
2022/12/29 05:58:35;;;;;;;2.45;1.05;;;10.70;53.60;;;6.02;63.12;95353.94;4935212;28;20059;-52
2022/12/29 06:01:08;;;;;;;3.40;1.38;;;10.80;53.50;;;6.07;63.03;95352.41;4968361;28;20034;-52
2022/12/29 06:03:33;;;;;;;1.42;1.15;;;10.80;53.50;;;6.13;62.54;95357.53;4969136;28;20023;-52
2022/12/29 06:06:02;;;;;;;0.95;0.90;;;10.80;53.40;;;6.20;61.71;95365.31;4957778;28;20433;-55
2022/12/29 06:08:31;;;;;;;1.90;1.00;;;10.80;53.40;;;6.24;61.72;95358.50;4967261;28;20037;-53
2022/12/29 06:10:57;;;;;;;0.98;0.85;;;10.90;53.20;;;6.25;61.32;95355.59;4963898;28;20027;-55
2022/12/29 06:13:27;;;;;;;3.25;1.20;;;10.90;53.20;;;6.32;60.52;95346.69;4952272;28;20332;-51
2022/12/29 06:15:56;;;;;;;2.65;0.98;;;10.90;53.00;;;6.37;61.63;95352.88;4959915;28;20367;-55
2022/12/29 06:18:21;;;;;;;1.63;1.00;;;11.00;53.00;;;6.43;61.02;95353.75;4967689;28;20113;-52
2022/12/29 06:20:48;;;;;;;1.88;1.02;;;11.00;53.00;;;6.53;60.66;95353.09;4967960;28;20036;-54
2022/12/29 06:23:14;;;;;;;2.42;1.13;;;11.00;52.80;;;6.60;62.08;95359.00;4955375;28;20037;-55
2022/12/29 06:25:40;;;;;;;1.33;1.00;;;11.10;52.80;;;6.66;62.08;95361.47;4949493;28;20026;-58
2022/12/29 06:28:06;;;;;;;3.25;1.10;;;11.10;52.80;;;6.72;63.58;95357.03;4961438;28;20392;-53
2022/12/29 06:30:40;;;;;;;2.35;1.10;;;11.20;52.80;;;6.77;63.18;95362.41;4969468;28;20026;-58
2022/12/29 06:33:08;;;;;;;2.97;1.23;;;11.30;52.90;;;6.80;62.86;95358.44;4952276;28;20026;-54
2022/12/29 06:35:36;;;;;;;2.78;1.50;;;11.30;52.90;;;6.81;64.14;95352.13;4959031;28;20026;-56
2022/12/29 06:38:07;;;;;;;2.33;1.33;;;11.30;52.90;;;6.82;65.22;95359.00;4969487;28;20061;-56
2022/12/29 06:40:33;;;;;;;2.63;1.63;;;11.40;53.00;;;6.87;65.89;95359.09;4970444;28;20023;-54
2022/12/29 06:43:02;;;;;;;5.25;1.38;;;11.40;53.20;;;6.94;65.94;95360.47;4966846;28;20038;-56
2022/12/29 06:45:28;;;;;;;3.70;1.30;;;11.50;53.30;;;6.93;65.84;95361.53;4963798;28;20037;-57
2022/12/29 06:47:54;;;;;;;3.75;1.30;;;11.50;53.30;;;6.95;67.05;95364.72;4968819;28;20030;-56
2022/12/29 06:50:20;;;;;;;5.03;1.80;;;11.50;53.40;;;7.04;66.32;95357.16;4967472;28;20033;-57
2022/12/29 06:52:45;;;;;;;3.03;1.50;;;11.60;53.60;;;7.04;67.26;95364.31;4961944;28;20026;-51
2022/12/29 06:55:16;;;;;;;2.75;1.90;;;11.60;53.60;;;7.08;69.72;95360.94;4963861;28;20026;-50
2022/12/29 06:57:42;;;;;;;4.38;1.40;;;11.60;53.80;;;7.08;70.65;95354.81;4964934;28;20033;-58
2022/12/29 07:00:11;;;;;;;3.38;2.05;;;11.70;54.60;;;7.16;69.95;95363.13;4961676;28;20366;-54
2022/12/29 07:02:37;;;;;;;3.33;1.50;;;11.70;54.40;;;7.17;68.87;95366.56;4962027;28;20390;-53
2022/12/29 07:05:07;;;;;;;3.72;1.42;;;11.70;54.10;;;7.15;69.05;95369.47;4949717;28;20022;-53
2022/12/29 07:07:35;;;;;;;3.08;1.92;;;11.70;54.10;;;7.19;70.94;95365.28;4969269;28;20420;-55
2022/12/29 07:10:05;;;;;;;3.38;2.08;;;11.80;54.30;;;7.28;72.27;95372.78;4953255;28;20062;-54
2022/12/29 07:12:33;;;;;;;3.58;1.98;;;11.80;54.60;;;7.40;72.75;95362.84;4945932;28;20478;-53
2022/12/29 07:14:59;;;;;;;3.05;1.88;;;11.80;54.90;;;7.45;72.42;95354.16;4943061;28;20042;-54
2022/12/29 07:17:25;;;;;;;5.97;1.83;;;11.90;55.00;;;7.51;72.87;95358.44;4949305;28;20096;-54
2022/12/29 07:19:54;;;;;;;3.65;2.05;;;11.90;55.20;;;7.57;72.77;95368.06;4952040;28;20031;-54
2022/12/29 07:22:20;;;;;;;4.43;1.80;;;12.00;55.30;;;7.62;72.37;95360.16;4959181;28;20038;-55
2022/12/29 07:24:45;;;;;;;6.43;2.00;;;12.10;55.40;;;7.63;72.11;95362.53;4958147;28;20045;-57
2022/12/29 07:27:11;;;;;;;5.20;1.90;;;12.10;55.30;;;7.69;72.29;95371.34;4963287;28;20041;-56
2022/12/29 07:29:38;;;;;;;4.20;2.05;;;12.10;55.30;;;7.72;72.25;95367.41;4954023;28;20122;-54
2022/12/29 07:32:07;;;;;;;4.95;2.42;;;12.20;55.40;;;7.78;72.24;95375.16;4964388;28;20113;-54
2022/12/29 07:34:33;;;;;;;5.18;2.03;;;12.30;55.40;;;7.79;72.46;95366.13;4959471;28;20018;-54
2022/12/29 07:37:06;;;;;;;4.45;1.52;;;12.30;55.40;;;7.80;72.70;95370.41;4962977;28;20527;-57
2022/12/29 07:39:32;;;;;;;6.90;1.90;;;12.30;55.40;;;7.74;72.61;95362.63;4950581;28;20027;-57
2022/12/29 07:41:58;;;;;;;3.85;2.17;;;12.30;55.40;;;7.72;72.37;95354.16;4934297;28;20368;-54
2022/12/29 07:44:33;;;;;;;3.67;1.80;;;12.30;55.40;;;7.77;72.19;95357.66;4950786;28;20129;-53
2022/12/29 07:46:59;;;;;;;3.53;1.55;;;12.40;55.40;;;7.78;70.95;95358.44;4950624;28;20026;-54
2022/12/29 07:49:25;;;;;;;6.38;2.17;;;12.40;55.40;;;7.81;71.40;95366.69;4954890;28;20085;-54
2022/12/29 07:51:53;;;;;;;2.65;1.60;;;12.40;55.30;;;7.80;71.49;95365.09;4959135;28;23190;-54
2022/12/29 07:54:20;;;;;;;5.15;2.22;;;12.40;55.30;;;7.77;71.94;95375.38;4946225;28;20473;-53
2022/12/29 07:56:47;;;;;;;7.75;2.10;;;12.40;55.30;;;7.75;72.11;95375.66;4951477;28;20026;-54
2022/12/29 07:59:13;;;;;;;11.80;4.80;;;12.40;55.40;;;7.79;72.31;95371.44;4946687;28;20022;-54
2022/12/29 08:01:44;;;;;;;9.27;4.07;;;12.40;55.40;;;7.81;71.87;95360.59;4952491;28;20054;-53
2022/12/29 08:04:10;;;;;;;3.28;1.70;;;12.50;55.40;;;7.83;70.90;95353.16;4951467;28;20054;-56
2022/12/29 08:06:42;;;;;;;4.20;1.73;;;12.50;55.40;;;7.89;71.22;95354.81;4944428;28;20118;-51
2022/12/29 08:09:09;;;;;;;2.47;1.45;;;12.50;55.30;;;7.91;71.24;95362.53;4952781;28;20027;-54
2022/12/29 08:11:36;;;;;;;2.25;1.80;;;12.60;55.40;;;7.87;71.13;95373.66;4947412;28;20366;-49
2022/12/29 08:14:02;;;;;;;4.57;1.50;;;12.60;55.30;;;7.89;70.11;95370.72;4952573;28;20126;-57
2022/12/29 08:16:30;;;;;;;2.65;1.45;;;12.60;55.30;;;7.97;70.12;95374.78;4950623;28;20121;-55
2022/12/29 08:18:59;;;;;;;4.28;1.50;;;12.60;55.20;;;8.03;69.10;95371.91;4952957;28;20374;-53
2022/12/29 08:21:28;;;;;;;4.03;2.03;;;12.60;55.10;;;8.09;69.92;95378.06;4949156;28;20061;-54
2022/12/29 08:23:57;;;;;;;2.25;1.33;;;12.60;55.10;;;8.09;69.26;95373.56;4960826;28;20031;-54
2022/12/29 08:26:23;;;;;;;2.55;1.17;;;12.70;55.10;;;8.07;69.75;95373.00;4951280;28;20393;-55
2022/12/29 08:28:49;;;;;;;3.50;1.42;;;12.70;55.10;;;8.06;68.89;95374.06;4945224;28;20025;-55
2022/12/29 08:31:17;;;;;;;2.67;1.45;;;12.70;54.90;;;8.07;68.99;95375.66;4952881;28;20080;-58
2022/12/29 08:33:43;;;;;;;2.90;1.60;;;12.70;54.80;;;8.10;68.46;95385.75;4967500;28;20050;-58
2022/12/29 08:36:09;;;;;;;4.18;1.30;;;12.80;54.80;;;8.17;67.52;95376.78;4967834;28;20052;-58
2022/12/29 08:38:35;;;;;;;2.50;1.10;;;12.80;54.70;;;8.23;67.78;95383.72;4933278;28;20948;-56
2022/12/29 08:41:03;;;;;;;5.97;1.77;;;12.80;54.60;;;8.24;67.65;95388.81;4951309;28;20110;-53
2022/12/29 08:43:30;;;;;;;3.40;1.40;;;12.90;54.50;;;8.23;66.78;95389.03;4945705;28;20034;-52
2022/12/29 08:46:00;;;;;;;2.53;1.30;;;12.90;54.30;;;8.24;65.93;95390.63;4952036;28;20026;-56
2022/12/29 08:48:27;;;;;;;3.30;1.30;;;12.90;54.10;;;8.20;65.63;95400.16;4964022;28;20027;-52
2022/12/29 08:50:53;;;;;;;3.58;1.40;;;13.00;54.00;;;8.23;64.73;95391.69;4943847;28;20114;-55
2022/12/29 08:53:21;;;;;;;3.22;1.48;;;13.00;53.80;;;8.28;64.58;95395.19;4951835;28;20034;-55
2022/12/29 08:55:57;;;;;;;3.28;1.33;;;13.00;53.60;;;8.29;64.87;95398.63;4951925;28;20022;-58
2022/12/29 08:58:23;;;;;;;2.60;1.42;;;13.10;53.50;;;8.29;64.01;95401.28;4962818;28;20481;-57
2022/12/29 09:00:49;;;;;;;4.13;1.25;;;13.10;53.40;;;8.31;64.48;95399.19;4952731;28;20118;-53
2022/12/29 09:03:15;;;;;;;2.33;1.30;;;13.10;53.30;;;8.35;64.73;95403.72;4954636;28;20109;-53
2022/12/29 09:05:43;;;;;;;4.00;1.45;;;13.10;53.30;;;8.33;64.16;95408.47;4963596;28;20588;-57
2022/12/29 09:08:08;;;;;;;2.35;1.23;;;13.10;53.10;;;8.30;63.99;95411.66;4951888;28;20378;-54
2022/12/29 09:10:37;;;;;;;2.35;0.98;;;13.20;53.10;;;8.29;61.98;95409.25;4947251;28;20023;-58
2022/12/29 09:13:03;;;;;;;3.60;1.30;;;13.30;52.80;;;8.31;60.46;95415.13;4953015;28;20128;-57
2022/12/29 09:15:29;;;;;;;1.67;1.25;;;13.30;52.50;;;8.27;57.50;95417.47;4953456;28;20066;-54
2022/12/29 09:17:58;;;;;;;3.03;1.10;;;13.40;52.20;;;8.35;59.58;95413.56;4950873;28;20073;-55
2022/12/29 09:20:24;;;;;;;2.65;1.13;;;13.50;51.90;;;8.44;57.65;95412.06;4950835;28;20029;-57
2022/12/29 09:22:49;;;;;;;3.20;1.13;;;13.60;51.70;;;8.55;57.08;95412.91;4950657;28;20022;-56
2022/12/29 09:25:17;;;;;;;1.85;1.23;;;13.70;51.40;;;8.67;56.32;95431.31;4948139;28;20037;-56
2022/12/29 09:27:43;;;;;;;1.67;1.00;;;13.90;51.00;;;8.71;54.39;95438.53;4951778;28;20038;-57
2022/12/29 09:30:16;;;;;;;2.45;0.90;;;14.00;50.80;;;8.82;52.86;95433.28;4966505;28;20037;-53
2022/12/29 09:32:42;;;;;;;1.48;1.00;;;14.10;50.20;;;8.84;54.62;95429.31;4951058;28;20085;-55
2022/12/29 09:35:08;;;;;;;3.13;1.10;;;14.10;50.20;;;8.84;53.88;95418.69;4951246;28;20351;-57
2022/12/29 09:37:34;;;;;;;1.27;1.00;;;14.10;49.90;;;8.90;56.25;95412.34;4952307;28;20442;-54
2022/12/29 09:40:00;;;;;;;1.08;0.93;;;14.20;49.90;;;8.93;54.21;95413.66;4950662;28;20038;-57
2022/12/29 09:42:45;;;;;;;2.50;1.15;;;14.20;49.70;;;8.92;54.14;95414.72;4950984;28;20068;-56
2022/12/29 09:45:34;;;;;;;1.48;1.08;;;14.30;49.50;;;8.92;54.91;95412.88;4952239;28;20081;-51
2022/12/29 09:48:23;;;;;;;3.35;1.30;;;14.30;49.20;;;8.95;56.23;95415.00;4937602;28;20065;-56
2022/12/29 09:50:59;;;;;;;1.40;1.20;;;14.40;49.20;;;9.06;56.71;95421.19;4951577;28;20030;-57
2022/12/29 09:53:44;;;;;;;2.53;1.30;;;14.40;49.20;;;9.14;55.50;95420.69;4947062;28;20048;-56
2022/12/29 09:56:24;;;;;;;2.38;1.00;;;14.50;49.00;;;9.27;54.58;95422.06;4924067;28;20023;-57
2022/12/29 09:59:19;;;;;;;6.40;1.40;;;14.60;48.80;;;9.43;54.75;95431.72;4955838;28;20847;-57
2022/12/29 10:02:13;;;;;;;1.65;1.20;;;14.70;48.70;;;9.48;55.33;95428.28;4948920;28;20519;-57
2022/12/29 10:04:45;;;;;;;1.80;1.13;;;14.70;48.70;;;9.54;54.42;95426.44;4943033;28;20085;-57
2022/12/29 10:07:25;;;;;;;;;;;14.80;48.60;;;9.64;56.51;95419.28;4952093;28;20077;-55
2022/12/29 10:10:32;;;;;;;3.30;1.23;;;14.80;49.10;;;9.69;56.58;95402.53;4950432;28;19956;-56
2022/12/29 10:13:57;;;;;;;1.88;1.38;;;15.00;48.90;;;9.79;58.32;95404.41;4940314;28;20042;-58
2022/12/29 10:17:12;;;;;;;1.88;1.45;;;15.10;48.90;;;9.86;57.48;95404.94;4965287;28;20420;-55
2022/12/29 10:20:17;;;;;;;4.50;1.50;;;15.20;48.80;;;10.08;58.07;95394.84;4944368;28;20030;-56
2022/12/29 10:23:26;;;;;;;4.20;1.50;;;15.30;49.00;;;10.24;56.48;95386.88;4952914;28;20055;-55
2022/12/29 10:26:01;;;;;;;1.88;1.40;;;15.50;48.90;;;10.41;55.93;95388.25;4953229;28;20505;-57
2022/12/29 10:29:02;;;;;;;3.00;1.60;;;15.80;48.60;;;10.69;57.39;95387.94;4958063;28;20420;-58
2022/12/29 10:32:35;;;;;;;4.05;1.92;;;16.20;48.40;;;10.97;55.83;95382.00;4953997;28;20032;-55
2022/12/29 10:35:19;;;;;;;4.93;1.77;;;16.70;48.20;;;11.18;55.36;95379.25;4874351;28;20065;-56
2022/12/29 10:38:42;;;;;;;4.30;2.28;;;16.90;48.00;;;11.21;56.40;95382.16;4960822;28;20037;-58
2022/12/29 10:41:32;;;;;;;5.05;2.03;;;16.90;47.80;;;11.15;57.65;95375.25;4988798;28;20037;-56
2022/12/29 10:44:02;;;;;;;3.70;1.88;;;16.80;47.70;;;11.07;56.72;95370.50;4982258;28;20079;-56
2022/12/29 10:46:38;;;;;;;5.20;2.17;;;16.80;47.70;;;10.86;58.01;95372.44;4974764;28;20108;-55
2022/12/29 10:49:17;;;;;;;2.70;1.50;;;16.70;47.50;;;10.84;58.25;95358.56;4983138;28;20036;-58
2022/12/29 10:51:48;;;;;;;2.78;1.90;;;16.70;47.60;;;10.93;57.07;95358.81;4977549;28;20053;-55
2022/12/29 10:54:51;;;;;;;3.25;1.58;;;16.60;47.60;;;11.08;56.86;95353.44;4981889;28;20108;-56
2022/12/29 10:57:30;;;;;;;3.97;1.25;;;16.60;47.50;;;11.02;56.10;95363.31;4986595;28;20037;-58
2022/12/29 10:59:57;;;;;;;2.67;1.40;;;16.70;47.50;;;10.72;57.98;95361.56;4985589;28;20033;-53
2022/12/29 11:02:50;;;;;;;4.35;1.65;;;16.60;47.20;;;10.72;58.31;95366.06;5006359;28;27035;-56
2022/12/29 11:05:34;;;;;;;2.97;1.65;;;16.60;47.20;;;10.80;58.73;95368.97;5006518;28;20114;-53
2022/12/29 11:08:11;;;;;;;2.45;1.65;;;16.60;47.40;;;10.77;59.56;95368.72;5007992;28;20098;-57
2022/12/29 11:10:42;;;;;;;4.43;1.73;;;16.60;47.30;;;10.70;59.41;95373.56;4985721;28;20028;-57
2022/12/29 11:13:25;;;;;;;3.75;1.48;;;16.60;47.10;;;10.88;58.93;95370.31;4986303;28;20033;-58
2022/12/29 11:15:52;;;;;;;4.85;1.88;;;16.60;47.20;;;11.05;60.72;95362.78;4972048;23;20046;-58
2022/12/29 11:18:39;;;;;;;4.10;1.92;;;16.60;47.60;;;11.03;59.25;95356.94;4949719;28;20038;-53
2022/12/29 11:21:41;;;;;;;2.47;1.67;;;16.70;47.60;;;11.15;58.71;95353.16;4969246;28;20463;-54
2022/12/29 11:24:32;;;;;;;3.90;1.65;;;16.80;47.60;;;11.08;60.33;95350.78;4950255;28;20018;-58
2022/12/29 11:27:25;;;;;;;5.38;1.80;;;16.90;47.40;;;11.19;57.78;95343.53;4957808;28;20482;-59
2022/12/29 11:29:57;;;;;;;2.55;1.58;;;17.00;47.40;;;11.21;59.12;95349.38;4964567;28;20331;-54
2022/12/29 11:32:31;;;;;;;4.35;1.83;;;17.20;47.10;;;11.20;59.22;95340.59;4960009;28;20093;-57
2022/12/29 11:34:59;;;;;;;2.97;1.60;;;17.30;47.00;;;11.06;60.37;95342.25;4975563;28;20049;-55
2022/12/29 11:37:42;;;;;;;7.75;1.73;;;17.30;46.80;;;10.88;61.08;95338.34;4969642;28;20029;-55